Christian Reinauer — WDA6472 — position and weather

sailwx.info

Track history (hours):
 
Tides and Currents Weather Stations Pressure Air Temp Water Temp Dewpoint Dewpoint Depression Visibility Wind Speed Wind Dir Waves Ship Positions

Christian Reinauer

Owner: REINAUER TRANSPORTATION CO LLC, STATEN ISLAND, NY. More information available from US FCC via Universal Licensing System and Coast Guard Vessel Documentation Center.

Last reported at 2017-Apr-23 11:30 UTC. Time now 2017-Apr-23 11:46 UTC.
Position N 40°46' W 073°57'.

Length 170 m; draft 6.4 m.

Type: . MMSI: 366832740.

Date/timePositionNaut miles runAvg speedWind from/ knotsBaromVisibWave heightAir tempDewpointWater temp
2017-Apr-23 11:30N 40°46' W 073°57'3 6.3
2017-Apr-23 11:00N 40°48' W 073°54'5 9.6
2017-Apr-23 10:30N 40°48' W 073°48'5311.3
2017-Apr-23 05:50N 41°07' W 072°42'410.9
2017-Apr-23 05:30N 41°07' W 072°38'510.4
2017-Apr-23 05:00N 41°09' W 072°31'5 9.9
2017-Apr-23 04:30N 41°10' W 072°25'5 9.3
2017-Apr-23 04:00N 41°12' W 072°19'5 9.6
2017-Apr-23 03:30N 41°13' W 072°13'5 9.5
2017-Apr-23 03:00N 41°14' W 072°07'510.3
2017-Apr-23 02:29N 41°15' W 071°59'3910.3
2017-Apr-22 22:41N 41°39' W 071°19'211.3
2017-Apr-22 22:30N 41°41' W 071°19'510.9
2017-Apr-22 22:00N 41°45' W 071°23'3 5.5
2017-Apr-22 21:30N 41°48' W 071°24'0 0.0
2017-Apr-22 20:49N 41°48' W 071°24'0 0.0
2017-Apr-22 20:18N 41°48' W 071°24'0 0.0
2017-Apr-22 19:49N 41°48' W 071°24'0 0.0
2017-Apr-22 19:25N 41°48' W 071°24'0 0.0
2017-Apr-22 18:55N 41°48' W 071°24'0 0.0
2017-Apr-22 18:25N 41°48' W 071°24'0 0.0
2017-Apr-22 17:55N 41°48' W 071°24'0 0.0
2017-Apr-22 17:25N 41°48' W 071°24'0 0.0
2017-Apr-22 15:37N 41°48' W 071°24'0 0.0
2017-Apr-22 15:28N 41°48' W 071°24'0 0.0
2017-Apr-22 15:00N 41°48' W 071°24'0 0.0
2017-Apr-22 14:30N 41°48' W 071°24'0 0.0
2017-Apr-22 13:30N 41°48' W 071°24'0 0.0
2017-Apr-22 13:00N 41°48' W 071°24'0 0.0
2017-Apr-22 12:28N 41°48' W 071°24'0 0.0
2017-Apr-22 11:45N 41°48' W 071°24'0 0.0
2017-Apr-22 11:30N 41°48' W 071°24'0 0.0
2017-Apr-22 10:48N 41°48' W 071°24'0 0.0
2017-Apr-22 10:30N 41°48' W 071°24'0 0.0
2017-Apr-22 10:00N 41°48' W 071°24'0 0.0
2017-Apr-22 09:30N 41°48' W 071°24'0 0.0
2017-Apr-22 08:59N 41°48' W 071°24'0 0.2
2017-Apr-22 08:29N 41°48' W 071°24'3 4.9
2017-Apr-22 07:53N 41°45' W 071°23'46 8.8
2017-Apr-22 02:38N 41°13' W 072°07'413.6
2017-Apr-22 02:22N 41°13' W 072°12'512.9
2017-Apr-22 01:56N 41°12' W 072°19'612.9
2017-Apr-22 01:30N 41°11' W 072°27'612.1
2017-Apr-22 01:00N 41°10' W 072°35'611.2
2017-Apr-22 00:30N 41°10' W 072°42'611.1
2017-Apr-22 00:00N 41°11' W 072°49'44 2.2
2017-Apr-21 04:09N 40°53' W 073°42'211.7
2017-Apr-21 03:59N 40°52' W 073°44'510.4
2017-Apr-21 03:30N 40°48' W 073°48'5 9.7
2017-Apr-21 03:00N 40°48' W 073°54'3 6.4
2017-Apr-21 02:30N 40°46' W 073°57'4 7.8
2017-Apr-21 02:00N 40°42' W 073°60'4 7.5
2017-Apr-21 01:30N 40°39' W 074°03'0 0.2
2017-Apr-21 01:00N 40°39' W 074°03'0 0.0
2017-Apr-21 00:30N 40°39' W 074°03'0 0.0
2017-Apr-21 00:00N 40°39' W 074°03'0 0.1
2017-Apr-20 23:30N 40°39' W 074°03'0 0.3
2017-Apr-20 23:00N 40°39' W 074°03'3 6.8
2017-Apr-20 22:30N 40°39' W 074°07'3 5.9
2017-Apr-20 22:00N 40°39' W 074°11'3 5.8
2017-Apr-20 21:30N 40°36' W 074°12'4 7.4
2017-Apr-20 20:59N 40°33' W 074°15'0 0.3
2017-Apr-20 20:28N 40°33' W 074°15'0 0.0
2017-Apr-20 18:20N 40°33' W 074°15'0 0.0
2017-Apr-20 17:56N 40°33' W 074°15'0 0.0
2017-Apr-20 17:14N 40°33' W 074°15'0 0.0
2017-Apr-20 13:25N 40°33' W 074°15'0 0.0
2017-Apr-20 11:25N 40°33' W 074°15'0 0.0
2017-Apr-20 04:27N 40°32' W 074°15'3 1.9
2017-Apr-20 03:04N 40°34' W 074°13'110.2
2017-Apr-20 02:56N 40°36' W 074°12'4 8.3
2017-Apr-20 02:31N 40°39' W 074°10'2 3.7
2017-Apr-20 01:58N 40°38' W 074°08'0 0.0
2017-Apr-20 01:28N 40°38' W 074°08'0 0.0
2017-Apr-20 00:58N 40°38' W 074°08'0 0.0
2017-Apr-20 00:25N 40°38' W 074°08'0 0.0
2017-Apr-19 23:49N 40°38' W 074°08'0 0.0
2017-Apr-19 23:25N 40°38' W 074°08'0 0.0
2017-Apr-19 22:49N 40°38' W 074°08'0 0.0
2017-Apr-19 22:25N 40°38' W 074°08'0 0.0
2017-Apr-19 21:55N 40°38' W 074°08'0 0.0
2017-Apr-19 21:04N 40°38' W 074°08'0 0.0
2017-Apr-19 20:58N 40°38' W 074°08'0 0.0
2017-Apr-19 20:22N 40°38' W 074°08'0 0.0
2017-Apr-19 19:58N 40°38' W 074°08'0 0.0
2017-Apr-19 19:28N 40°38' W 074°08'0 0.0
2017-Apr-19 18:43N 40°38' W 074°08'0 0.0
2017-Apr-19 18:07N 40°38' W 074°08'0 0.0
2017-Apr-19 17:55N 40°38' W 074°08'0 0.0
2017-Apr-19 17:25N 40°38' W 074°08'1 1.7
2017-Apr-19 17:01N 40°39' W 074°09'3 6.9
2017-Apr-19 16:30N 40°36' W 074°12'4 7.5
2017-Apr-19 16:00N 40°33' W 074°15'1 0.8
2017-Apr-19 15:00N 40°32' W 074°15'2 4.0
2017-Apr-19 14:27N 40°34' W 074°13'6 6.1
2017-Apr-19 13:30N 40°39' W 074°08'4 7.9
2017-Apr-19 13:00N 40°39' W 074°03'1 2.0
2017-Apr-19 12:30N 40°40' W 074°02'0 0.1
2017-Apr-19 11:59N 40°40' W 074°02'0 0.1
2017-Apr-19 11:29N 40°40' W 074°02'0 0.1
2017-Apr-19 10:59N 40°40' W 074°02'0 0.0
2017-Apr-19 10:29N 40°40' W 074°02'0 0.0
2017-Apr-19 09:59N 40°40' W 074°02'0 0.1
2017-Apr-19 09:29N 40°40' W 074°02'0 0.1
2017-Apr-19 08:59N 40°40' W 074°02'0 0.2
2017-Apr-19 08:29N 40°40' W 074°02'0 0.1
2017-Apr-19 07:59N 40°40' W 074°02'0 0.1
2017-Apr-19 07:29N 40°40' W 074°02'0 0.0
2017-Apr-19 06:59N 40°40' W 074°02'0 0.0
2017-Apr-19 06:29N 40°40' W 074°02'0 0.1
2017-Apr-19 05:59N 40°40' W 074°02'0 0.0
2017-Apr-19 05:29N 40°40' W 074°02'0 0.0
2017-Apr-19 04:59N 40°40' W 074°02'0 0.1
2017-Apr-19 04:29N 40°40' W 074°02'0 0.2
2017-Apr-19 03:59N 40°40' W 074°02'0 0.2
2017-Apr-19 03:29N 40°40' W 074°02'0 0.2
2017-Apr-19 02:59N 40°40' W 074°02'0 0.1
2017-Apr-19 02:29N 40°40' W 074°02'0 0.0
2017-Apr-19 01:59N 40°40' W 074°02'0 0.0
2017-Apr-19 01:29N 40°40' W 074°02'0 0.1
2017-Apr-19 01:00N 40°40' W 074°02'1 2.9
2017-Apr-19 00:31N 40°39' W 074°03'1 1.2
2017-Apr-19 00:01N 40°38' W 074°04'0 0.1
2017-Apr-18 23:31N 40°38' W 074°04'2 3.5
2017-Apr-18 23:00N 40°40' W 074°03'5 9.0
2017-Apr-18 22:31N 40°43' W 073°59'510.7
2017-Apr-18 22:00N 40°47' W 073°55'510.2
2017-Apr-18 21:29N 40°48' W 073°48'510.7
2017-Apr-18 20:59N 40°52' W 073°44'2 0.1
2017-Apr-17 18:47N 40°53' W 073°42'411.3
2017-Apr-17 18:26N 40°50' W 073°46'4 9.0
2017-Apr-17 18:00N 40°48' W 073°50'5 9.8
2017-Apr-17 17:30N 40°47' W 073°56'5 9.9
2017-Apr-17 17:00N 40°42' W 073°59'5 9.9
2017-Apr-17 16:30N 40°39' W 074°04'5 9.5
2017-Apr-17 16:01N 40°39' W 074°10'4 7.0
2017-Apr-17 15:30N 40°36' W 074°12'4 7.4
2017-Apr-17 15:00N 40°33' W 074°15'0 0.0
2017-Apr-16 23:02N 40°33' W 074°15'0 0.1
2017-Apr-16 22:55N 40°33' W 074°15'1 2.2
2017-Apr-16 22:28N 40°33' W 074°14'4 8.6
2017-Apr-16 21:59N 40°37' W 074°12'4 8.3
2017-Apr-16 21:30N 40°39' W 074°07'5 9.4
2017-Apr-16 21:00N 40°41' W 074°02'611.5
2017-Apr-16 20:30N 40°46' W 073°57'510.7
2017-Apr-16 20:00N 40°48' W 073°51'5 9.5
2017-Apr-16 19:29N 40°51' W 073°46'711.2
2017-Apr-16 18:54N 40°55' W 073°39'5811.8
2017-Apr-16 14:00N 41°10' W 072°25'611.3
2017-Apr-16 13:29N 41°11' W 072°17'511.3
2017-Apr-16 13:00N 41°13' W 072°10'46 9.5
2017-Apr-16 08:07N 41°37' W 071°18'112.0
2017-Apr-16 08:00N 41°39' W 071°18'510.9
2017-Apr-16 07:30N 41°44' W 071°22'5 8.9
2017-Apr-16 06:59N 41°48' W 071°23'0 0.2
2017-Apr-16 06:19N 41°48' W 071°24'0 0.0
2017-Apr-16 05:55N 41°48' W 071°24'0 0.0
2017-Apr-16 05:25N 41°48' W 071°24'0 0.0
2017-Apr-16 05:00N 41°48' W 071°24'0 0.0
2017-Apr-16 04:24N 41°48' W 071°24'0 0.0
2017-Apr-16 03:48N 41°48' W 071°24'0 0.0
2017-Apr-16 03:30N 41°48' W 071°24'0 0.0
2017-Apr-16 03:00N 41°48' W 071°24'0 0.0
2017-Apr-16 02:24N 41°48' W 071°24'0 0.0
2017-Apr-16 02:00N 41°48' W 071°24'0 0.0
2017-Apr-16 01:30N 41°48' W 071°24'0 0.0
2017-Apr-16 01:00N 41°48' W 071°24'0 0.0
2017-Apr-16 00:18N 41°48' W 071°24'0 0.0
2017-Apr-16 00:00N 41°48' W 071°24'0 0.0
2017-Apr-15 23:30N 41°48' W 071°24'0 0.0
2017-Apr-15 22:54N 41°48' W 071°24'0 0.0
2017-Apr-15 22:30N 41°48' W 071°24'0 0.0
2017-Apr-15 22:00N 41°48' W 071°24'0 0.0
2017-Apr-15 21:30N 41°48' W 071°24'0 0.0
2017-Apr-15 20:48N 41°48' W 071°24'0 0.0
2017-Apr-15 19:54N 41°48' W 071°24'0 0.0
2017-Apr-15 19:18N 41°48' W 071°24'0 0.0
2017-Apr-15 19:00N 41°48' W 071°24'0 0.0
2017-Apr-15 15:43N 41°48' W 071°24'0 0.0
2017-Apr-15 15:30N 41°48' W 071°24'0 0.0
2017-Apr-15 14:49N 41°48' W 071°24'1 1.7
2017-Apr-15 13:57N 41°47' W 071°22'4 8.8
2017-Apr-15 13:30N 41°43' W 071°21'611.3
2017-Apr-15 13:00N 41°38' W 071°18'710.9
2017-Apr-15 12:22N 41°31' W 071°20'410.8
2017-Apr-15 12:00N 41°28' W 071°23'611.8
2017-Apr-15 11:30N 41°22' W 071°26'510.4
2017-Apr-15 10:59N 41°18' W 071°30'2813.2
2017-Apr-15 08:50N 41°14' W 072°07'514.0
2017-Apr-15 08:29N 41°12' W 072°13'713.6
2017-Apr-15 08:00N 41°11' W 072°22'612.6
2017-Apr-15 07:30N 41°10' W 072°30'612.0
2017-Apr-15 07:00N 41°11' W 072°38'611.4
2017-Apr-15 06:30N 41°11' W 072°46'9 0.4
2017-Apr-14 10:04N 41°10' W 072°57'3812.3
2017-Apr-14 06:59N 40°54' W 073°42'511.2
2017-Apr-14 06:31N 40°50' W 073°47'4 8.6
2017-Apr-14 06:00N 40°48' W 073°52'4 7.6
2017-Apr-14 05:31N 40°46' W 073°57'5 8.9
2017-Apr-14 05:00N 40°42' W 073°59'510.5
2017-Apr-14 04:31N 40°39' W 074°05'510.3
2017-Apr-14 04:01N 40°39' W 074°11'4 7.4
2017-Apr-14 03:30N 40°35' W 074°13'3 5.8
2017-Apr-14 03:00N 40°33' W 074°15'0 0.4
2017-Apr-14 02:23N 40°33' W 074°15'0 0.0
2017-Apr-14 01:06N 40°33' W 074°15'0 0.0
2017-Apr-14 01:00N 40°33' W 074°15'0 0.0
2017-Apr-14 00:06N 40°33' W 074°15'0 0.0
2017-Apr-14 00:00N 40°33' W 074°15'0 0.0
2017-Apr-13 23:24N 40°33' W 074°15'0 0.0
2017-Apr-13 21:27N 40°33' W 074°15'0 0.0
2017-Apr-13 20:48N 40°33' W 074°15'0 0.0
2017-Apr-13 20:27N 40°33' W 074°15'0 0.0
2017-Apr-13 17:06N 40°33' W 074°15'0 0.0
2017-Apr-13 16:54N 40°33' W 074°15'0 0.0
2017-Apr-13 16:30N 40°33' W 074°15'0 0.0
2017-Apr-13 15:42N 40°33' W 074°15'0 0.0
2017-Apr-13 14:54N 40°33' W 074°15'0 0.0
2017-Apr-13 14:24N 40°33' W 074°15'0 0.0
2017-Apr-13 13:24N 40°33' W 074°15'0 0.0
2017-Apr-13 13:00N 40°33' W 074°15'0 0.0
2017-Apr-13 12:24N 40°33' W 074°15'0 0.0
2017-Apr-13 12:00N 40°33' W 074°15'  
Track history (hours):
 
Tides and Currents Weather Stations Pressure Air Temp Water Temp Dewpoint Dewpoint Depression Visibility Wind Speed Wind Dir Waves Ship Positions

Christian Reinauer

Owner: REINAUER TRANSPORTATION CO LLC, STATEN ISLAND, NY. More information available from US FCC via Universal Licensing System and Coast Guard Vessel Documentation Center.

Last reported at 2017-Apr-23 11:30 UTC. Time now 2017-Apr-23 11:46 UTC.
Position N 40°46' W 073°57'.

Length 170 m; draft 6.4 m.

Type: . MMSI: 366832740.

Date/timePositionNaut miles runAvg speedWind from/ knotsBaromVisibWave heightAir tempDewpointWater temp
2017-Apr-23 11:30N 40°46' W 073°57'3 6.3
2017-Apr-23 11:00N 40°48' W 073°54'5 9.6
2017-Apr-23 10:30N 40°48' W 073°48'5311.3
2017-Apr-23 05:50N 41°07' W 072°42'410.9
2017-Apr-23 05:30N 41°07' W 072°38'510.4
2017-Apr-23 05:00N 41°09' W 072°31'5 9.9
2017-Apr-23 04:30N 41°10' W 072°25'5 9.3
2017-Apr-23 04:00N 41°12' W 072°19'5 9.6
2017-Apr-23 03:30N 41°13' W 072°13'5 9.5
2017-Apr-23 03:00N 41°14' W 072°07'510.3
2017-Apr-23 02:29N 41°15' W 071°59'3910.3
2017-Apr-22 22:41N 41°39' W 071°19'211.3
2017-Apr-22 22:30N 41°41' W 071°19'510.9
2017-Apr-22 22:00N 41°45' W 071°23'3 5.5
2017-Apr-22 21:30N 41°48' W 071°24'0 0.0
2017-Apr-22 20:49N 41°48' W 071°24'0 0.0
2017-Apr-22 20:18N 41°48' W 071°24'0 0.0
2017-Apr-22 19:49N 41°48' W 071°24'0 0.0
2017-Apr-22 19:25N 41°48' W 071°24'0 0.0
2017-Apr-22 18:55N 41°48' W 071°24'0 0.0
2017-Apr-22 18:25N 41°48' W 071°24'0 0.0
2017-Apr-22 17:55N 41°48' W 071°24'0 0.0
2017-Apr-22 17:25N 41°48' W 071°24'0 0.0
2017-Apr-22 15:37N 41°48' W 071°24'0 0.0
2017-Apr-22 15:28N 41°48' W 071°24'0 0.0
2017-Apr-22 15:00N 41°48' W 071°24'0 0.0
2017-Apr-22 14:30N 41°48' W 071°24'0 0.0
2017-Apr-22 13:30N 41°48' W 071°24'0 0.0
2017-Apr-22 13:00N 41°48' W 071°24'0 0.0
2017-Apr-22 12:28N 41°48' W 071°24'0 0.0
2017-Apr-22 11:45N 41°48' W 071°24'0 0.0
2017-Apr-22 11:30N 41°48' W 071°24'0 0.0
2017-Apr-22 10:48N 41°48' W 071°24'0 0.0
2017-Apr-22 10:30N 41°48' W 071°24'0 0.0
2017-Apr-22 10:00N 41°48' W 071°24'0 0.0
2017-Apr-22 09:30N 41°48' W 071°24'0 0.0
2017-Apr-22 08:59N 41°48' W 071°24'0 0.2
2017-Apr-22 08:29N 41°48' W 071°24'3 4.9
2017-Apr-22 07:53N 41°45' W 071°23'46 8.8
2017-Apr-22 02:38N 41°13' W 072°07'413.6
2017-Apr-22 02:22N 41°13' W 072°12'512.9
2017-Apr-22 01:56N 41°12' W 072°19'612.9
2017-Apr-22 01:30N 41°11' W 072°27'612.1
2017-Apr-22 01:00N 41°10' W 072°35'611.2
2017-Apr-22 00:30N 41°10' W 072°42'611.1
2017-Apr-22 00:00N 41°11' W 072°49'44 2.2
2017-Apr-21 04:09N 40°53' W 073°42'211.7
2017-Apr-21 03:59N 40°52' W 073°44'510.4
2017-Apr-21 03:30N 40°48' W 073°48'5 9.7
2017-Apr-21 03:00N 40°48' W 073°54'3 6.4
2017-Apr-21 02:30N 40°46' W 073°57'4 7.8
2017-Apr-21 02:00N 40°42' W 073°60'4 7.5
2017-Apr-21 01:30N 40°39' W 074°03'0 0.2
2017-Apr-21 01:00N 40°39' W 074°03'0 0.0
2017-Apr-21 00:30N 40°39' W 074°03'0 0.0
2017-Apr-21 00:00N 40°39' W 074°03'0 0.1
2017-Apr-20 23:30N 40°39' W 074°03'0 0.3
2017-Apr-20 23:00N 40°39' W 074°03'3 6.8
2017-Apr-20 22:30N 40°39' W 074°07'3 5.9
2017-Apr-20 22:00N 40°39' W 074°11'3 5.8
2017-Apr-20 21:30N 40°36' W 074°12'4 7.4
2017-Apr-20 20:59N 40°33' W 074°15'0 0.3
2017-Apr-20 20:28N 40°33' W 074°15'0 0.0
2017-Apr-20 18:20N 40°33' W 074°15'0 0.0
2017-Apr-20 17:56N 40°33' W 074°15'0 0.0
2017-Apr-20 17:14N 40°33' W 074°15'0 0.0
2017-Apr-20 13:25N 40°33' W 074°15'0 0.0
2017-Apr-20 11:25N 40°33' W 074°15'0 0.0
2017-Apr-20 04:27N 40°32' W 074°15'3 1.9
2017-Apr-20 03:04N 40°34' W 074°13'110.2
2017-Apr-20 02:56N 40°36' W 074°12'4 8.3
2017-Apr-20 02:31N 40°39' W 074°10'2 3.7
2017-Apr-20 01:58N 40°38' W 074°08'0 0.0
2017-Apr-20 01:28N 40°38' W 074°08'0 0.0
2017-Apr-20 00:58N 40°38' W 074°08'0 0.0
2017-Apr-20 00:25N 40°38' W 074°08'0 0.0
2017-Apr-19 23:49N 40°38' W 074°08'0 0.0
2017-Apr-19 23:25N 40°38' W 074°08'0 0.0
2017-Apr-19 22:49N 40°38' W 074°08'0 0.0
2017-Apr-19 22:25N 40°38' W 074°08'0 0.0
2017-Apr-19 21:55N 40°38' W 074°08'0 0.0
2017-Apr-19 21:04N 40°38' W 074°08'0 0.0
2017-Apr-19 20:58N 40°38' W 074°08'0 0.0
2017-Apr-19 20:22N 40°38' W 074°08'0 0.0
2017-Apr-19 19:58N 40°38' W 074°08'0 0.0
2017-Apr-19 19:28N 40°38' W 074°08'0 0.0
2017-Apr-19 18:43N 40°38' W 074°08'0 0.0
2017-Apr-19 18:07N 40°38' W 074°08'0 0.0
2017-Apr-19 17:55N 40°38' W 074°08'0 0.0
2017-Apr-19 17:25N 40°38' W 074°08'1 1.7
2017-Apr-19 17:01N 40°39' W 074°09'3 6.9
2017-Apr-19 16:30N 40°36' W 074°12'4 7.5
2017-Apr-19 16:00N 40°33' W 074°15'1 0.8
2017-Apr-19 15:00N 40°32' W 074°15'2 4.0
2017-Apr-19 14:27N 40°34' W 074°13'6 6.1
2017-Apr-19 13:30N 40°39' W 074°08'4 7.9
2017-Apr-19 13:00N 40°39' W 074°03'1 2.0
2017-Apr-19 12:30N 40°40' W 074°02'0 0.1
2017-Apr-19 11:59N 40°40' W 074°02'0 0.1
2017-Apr-19 11:29N 40°40' W 074°02'0 0.1
2017-Apr-19 10:59N 40°40' W 074°02'0 0.0
2017-Apr-19 10:29N 40°40' W 074°02'0 0.0
2017-Apr-19 09:59N 40°40' W 074°02'0 0.1
2017-Apr-19 09:29N 40°40' W 074°02'0 0.1
2017-Apr-19 08:59N 40°40' W 074°02'0 0.2
2017-Apr-19 08:29N 40°40' W 074°02'0 0.1
2017-Apr-19 07:59N 40°40' W 074°02'0 0.1
2017-Apr-19 07:29N 40°40' W 074°02'0 0.0
2017-Apr-19 06:59N 40°40' W 074°02'0 0.0
2017-Apr-19 06:29N 40°40' W 074°02'0 0.1
2017-Apr-19 05:59N 40°40' W 074°02'0 0.0
2017-Apr-19 05:29N 40°40' W 074°02'0 0.0
2017-Apr-19 04:59N 40°40' W 074°02'0 0.1
2017-Apr-19 04:29N 40°40' W 074°02'0 0.2
2017-Apr-19 03:59N 40°40' W 074°02'0 0.2
2017-Apr-19 03:29N 40°40' W 074°02'0 0.2
2017-Apr-19 02:59N 40°40' W 074°02'0 0.1
2017-Apr-19 02:29N 40°40' W 074°02'0 0.0
2017-Apr-19 01:59N 40°40' W 074°02'0 0.0
2017-Apr-19 01:29N 40°40' W 074°02'0 0.1
2017-Apr-19 01:00N 40°40' W 074°02'1 2.9
2017-Apr-19 00:31N 40°39' W 074°03'1 1.2
2017-Apr-19 00:01N 40°38' W 074°04'0 0.1
2017-Apr-18 23:31N 40°38' W 074°04'2 3.5
2017-Apr-18 23:00N 40°40' W 074°03'5 9.0
2017-Apr-18 22:31N 40°43' W 073°59'510.7
2017-Apr-18 22:00N 40°47' W 073°55'510.2
2017-Apr-18 21:29N 40°48' W 073°48'510.7
2017-Apr-18 20:59N 40°52' W 073°44'2 0.1
2017-Apr-17 18:47N 40°53' W 073°42'411.3
2017-Apr-17 18:26N 40°50' W 073°46'4 9.0
2017-Apr-17 18:00N 40°48' W 073°50'5 9.8
2017-Apr-17 17:30N 40°47' W 073°56'5 9.9
2017-Apr-17 17:00N 40°42' W 073°59'5 9.9
2017-Apr-17 16:30N 40°39' W 074°04'5 9.5
2017-Apr-17 16:01N 40°39' W 074°10'4 7.0
2017-Apr-17 15:30N 40°36' W 074°12'4 7.4
2017-Apr-17 15:00N 40°33' W 074°15'0 0.0
2017-Apr-16 23:02N 40°33' W 074°15'0 0.1
2017-Apr-16 22:55N 40°33' W 074°15'1 2.2
2017-Apr-16 22:28N 40°33' W 074°14'4 8.6
2017-Apr-16 21:59N 40°37' W 074°12'4 8.3
2017-Apr-16 21:30N 40°39' W 074°07'5 9.4
2017-Apr-16 21:00N 40°41' W 074°02'611.5
2017-Apr-16 20:30N 40°46' W 073°57'510.7
2017-Apr-16 20:00N 40°48' W 073°51'5 9.5
2017-Apr-16 19:29N 40°51' W 073°46'711.2
2017-Apr-16 18:54N 40°55' W 073°39'5811.8
2017-Apr-16 14:00N 41°10' W 072°25'611.3
2017-Apr-16 13:29N 41°11' W 072°17'511.3
2017-Apr-16 13:00N 41°13' W 072°10'46 9.5
2017-Apr-16 08:07N 41°37' W 071°18'112.0
2017-Apr-16 08:00N 41°39' W 071°18'510.9
2017-Apr-16 07:30N 41°44' W 071°22'5 8.9
2017-Apr-16 06:59N 41°48' W 071°23'0 0.2
2017-Apr-16 06:19N 41°48' W 071°24'0 0.0
2017-Apr-16 05:55N 41°48' W 071°24'0 0.0
2017-Apr-16 05:25N 41°48' W 071°24'0 0.0
2017-Apr-16 05:00N 41°48' W 071°24'0 0.0
2017-Apr-16 04:24N 41°48' W 071°24'0 0.0
2017-Apr-16 03:48N 41°48' W 071°24'0 0.0
2017-Apr-16 03:30N 41°48' W 071°24'0 0.0
2017-Apr-16 03:00N 41°48' W 071°24'0 0.0
2017-Apr-16 02:24N 41°48' W 071°24'0 0.0
2017-Apr-16 02:00N 41°48' W 071°24'0 0.0
2017-Apr-16 01:30N 41°48' W 071°24'0 0.0
2017-Apr-16 01:00N 41°48' W 071°24'0 0.0
2017-Apr-16 00:18N 41°48' W 071°24'0 0.0
2017-Apr-16 00:00N 41°48' W 071°24'0 0.0
2017-Apr-15 23:30N 41°48' W 071°24'0 0.0
2017-Apr-15 22:54N 41°48' W 071°24'0 0.0
2017-Apr-15 22:30N 41°48' W 071°24'0 0.0
2017-Apr-15 22:00N 41°48' W 071°24'0 0.0
2017-Apr-15 21:30N 41°48' W 071°24'0 0.0
2017-Apr-15 20:48N 41°48' W 071°24'0 0.0
2017-Apr-15 19:54N 41°48' W 071°24'0 0.0
2017-Apr-15 19:18N 41°48' W 071°24'0 0.0
2017-Apr-15 19:00N 41°48' W 071°24'0 0.0
2017-Apr-15 15:43N 41°48' W 071°24'0 0.0
2017-Apr-15 15:30N 41°48' W 071°24'0 0.0
2017-Apr-15 14:49N 41°48' W 071°24'1 1.7
2017-Apr-15 13:57N 41°47' W 071°22'4 8.8
2017-Apr-15 13:30N 41°43' W 071°21'611.3
2017-Apr-15 13:00N 41°38' W 071°18'710.9
2017-Apr-15 12:22N 41°31' W 071°20'410.8
2017-Apr-15 12:00N 41°28' W 071°23'611.8
2017-Apr-15 11:30N 41°22' W 071°26'510.4
2017-Apr-15 10:59N 41°18' W 071°30'2813.2
2017-Apr-15 08:50N 41°14' W 072°07'514.0
2017-Apr-15 08:29N 41°12' W 072°13'713.6
2017-Apr-15 08:00N 41°11' W 072°22'612.6
2017-Apr-15 07:30N 41°10' W 072°30'612.0
2017-Apr-15 07:00N 41°11' W 072°38'611.4
2017-Apr-15 06:30N 41°11' W 072°46'9 0.4
2017-Apr-14 10:04N 41°10' W 072°57'3812.3
2017-Apr-14 06:59N 40°54' W 073°42'511.2
2017-Apr-14 06:31N 40°50' W 073°47'4 8.6
2017-Apr-14 06:00N 40°48' W 073°52'4 7.6
2017-Apr-14 05:31N 40°46' W 073°57'5 8.9
2017-Apr-14 05:00N 40°42' W 073°59'510.5
2017-Apr-14 04:31N 40°39' W 074°05'510.3
2017-Apr-14 04:01N 40°39' W 074°11'4 7.4
2017-Apr-14 03:30N 40°35' W 074°13'3 5.8
2017-Apr-14 03:00N 40°33' W 074°15'0 0.4
2017-Apr-14 02:23N 40°33' W 074°15'0 0.0
2017-Apr-14 01:06N 40°33' W 074°15'0 0.0
2017-Apr-14 01:00N 40°33' W 074°15'0 0.0
2017-Apr-14 00:06N 40°33' W 074°15'0 0.0
2017-Apr-14 00:00N 40°33' W 074°15'0 0.0
2017-Apr-13 23:24N 40°33' W 074°15'0 0.0
2017-Apr-13 21:27N 40°33' W 074°15'0 0.0
2017-Apr-13 20:48N 40°33' W 074°15'0 0.0
2017-Apr-13 20:27N 40°33' W 074°15'0 0.0
2017-Apr-13 17:06N 40°33' W 074°15'0 0.0
2017-Apr-13 16:54N 40°33' W 074°15'0 0.0
2017-Apr-13 16:30N 40°33' W 074°15'0 0.0
2017-Apr-13 15:42N 40°33' W 074°15'0 0.0
2017-Apr-13 14:54N 40°33' W 074°15'0 0.0
2017-Apr-13 14:24N 40°33' W 074°15'0 0.0
2017-Apr-13 13:24N 40°33' W 074°15'0 0.0
2017-Apr-13 13:00N 40°33' W 074°15'0 0.0
2017-Apr-13 12:24N 40°33' W 074°15'0 0.0
2017-Apr-13 12:00N 40°33' W 074°15'  

Dump ship's entire track history